sensor_id;sensor_type;location;lat;lon;timestamp;temperature;humidity
23540;DHT22;11947;50.810;4.394;2022-07-15T11:16:32;32.80;60.10
23540;DHT22;11947;50.810;4.394;2022-07-15T11:18:58;31.80;63.10
23540;DHT22;11947;50.810;4.394;2022-07-15T11:21:24;33.10;60.60
23540;DHT22;11947;50.810;4.394;2022-07-15T11:23:51;35.40;57.10
23540;DHT22;11947;50.810;4.394;2022-07-15T11:26:19;38.00;55.40
23540;DHT22;11947;50.810;4.394;2022-07-15T11:28:52;40.50;52.00
23540;DHT22;11947;50.810;4.394;2022-07-15T11:31:20;40.50;50.80
23540;DHT22;11947;50.810;4.394;2022-07-15T11:33:47;38.70;50.50
23540;DHT22;11947;50.810;4.394;2022-07-15T11:36:18;36.90;52.80
23540;DHT22;11947;50.810;4.394;2022-07-15T11:38:44;37.10;53.80
23540;DHT22;11947;50.810;4.394;2022-07-15T11:41:09;37.10;54.40
23540;DHT22;11947;50.810;4.394;2022-07-15T11:44:01;37.60;52.20
23540;DHT22;11947;50.810;4.394;2022-07-15T11:46:46;37.20;52.80
23540;DHT22;11947;50.810;4.394;2022-07-15T11:51:50;39.60;52.00
23540;DHT22;11947;50.810;4.394;2022-07-15T11:54:17;41.80;49.60
23540;DHT22;11947;50.810;4.394;2022-07-15T11:56:43;42.90;48.40
23540;DHT22;11947;50.810;4.394;2022-07-15T11:59:09;42.30;46.90
23540;DHT22;11947;50.810;4.394;2022-07-15T12:01:34;40.40;47.30
23540;DHT22;11947;50.810;4.394;2022-07-15T12:04:00;38.70;49.90
23540;DHT22;11947;50.810;4.394;2022-07-15T12:06:30;37.20;50.60
23540;DHT22;11947;50.810;4.394;2022-07-15T12:09:02;36.00;53.00
23540;DHT22;11947;50.810;4.394;2022-07-15T12:11:35;37.90;51.60
23540;DHT22;11947;50.810;4.394;2022-07-15T12:14:11;38.70;50.30
23540;DHT22;11947;50.810;4.394;2022-07-15T12:19:08;42.30;47.90
23540;DHT22;11947;50.810;4.394;2022-07-15T12:21:35;44.30;45.50
23540;DHT22;11947;50.810;4.394;2022-07-15T12:24:15;46.30;44.70
23540;DHT22;11947;50.810;4.394;2022-07-15T12:29:17;48.70;40.70
23540;DHT22;11947;50.810;4.394;2022-07-15T12:31:50;46.40;41.20
23540;DHT22;11947;50.810;4.394;2022-07-15T12:34:16;43.90;43.20
23540;DHT22;11947;50.810;4.394;2022-07-15T12:36:41;41.20;45.90
23540;DHT22;11947;50.810;4.394;2022-07-15T12:39:16;38.70;46.70
23540;DHT22;11947;50.810;4.394;2022-07-15T12:41:44;36.30;49.70
23540;DHT22;11947;50.810;4.394;2022-07-15T12:44:10;35.90;50.50
23540;DHT22;11947;50.810;4.394;2022-07-15T12:46:49;35.10;51.50
23540;DHT22;11947;50.810;4.394;2022-07-15T12:52:15;32.20;56.60
23540;DHT22;11947;50.810;4.394;2022-07-15T12:54:41;31.70;56.30
23540;DHT22;11947;50.810;4.394;2022-07-15T12:57:33;31.20;56.80
23540;DHT22;11947;50.810;4.394;2022-07-15T13:00:19;30.30;59.50
23540;DHT22;11947;50.810;4.394;2022-07-15T13:03:01;29.80;59.90
23540;DHT22;11947;50.810;4.394;2022-07-15T13:05:35;29.60;61.20
23540;DHT22;11947;50.810;4.394;2022-07-15T13:08:13;29.30;61.40
23540;DHT22;11947;50.810;4.394;2022-07-15T13:10:41;29.10;61.30
23540;DHT22;11947;50.810;4.394;2022-07-15T13:13:10;28.80;64.30
23540;DHT22;11947;50.810;4.394;2022-07-15T13:15:37;28.90;64.90
23540;DHT22;11947;50.810;4.394;2022-07-15T13:18:03;30.60;62.70
23540;DHT22;11947;50.810;4.394;2022-07-15T13:20:30;31.80;58.70
23540;DHT22;11947;50.810;4.394;2022-07-15T13:22:55;32.10;57.80
23540;DHT22;11947;50.810;4.394;2022-07-15T13:25:23;32.00;59.70
23540;DHT22;11947;50.810;4.394;2022-07-15T13:27:49;33.30;58.70
23540;DHT22;11947;50.810;4.394;2022-07-15T13:30:14;35.50;53.30
23540;DHT22;11947;50.810;4.394;2022-07-15T13:32:41;38.20;50.10
23540;DHT22;11947;50.810;4.394;2022-07-15T13:35:08;40.20;48.10
23540;DHT22;11947;50.810;4.394;2022-07-15T13:37:34;42.10;45.80
23540;DHT22;11947;50.810;4.394;2022-07-15T13:39:59;42.70;44.30
23540;DHT22;11947;50.810;4.394;2022-07-15T13:42:26;41.70;45.10
23540;DHT22;11947;50.810;4.394;2022-07-15T13:44:52;41.90;43.90
23540;DHT22;11947;50.810;4.394;2022-07-15T13:47:18;42.90;43.60
23540;DHT22;11947;50.810;4.394;2022-07-15T13:49:44;43.90;44.10
23540;DHT22;11947;50.810;4.394;2022-07-15T13:52:29;43.60;44.60
23540;DHT22;11947;50.810;4.394;2022-07-15T13:54:54;41.70;43.60
23540;DHT22;11947;50.810;4.394;2022-07-15T13:57:20;39.40;46.00
23540;DHT22;11947;50.810;4.394;2022-07-15T13:59:46;38.70;47.40
23540;DHT22;11947;50.810;4.394;2022-07-15T14:02:12;37.50;48.50
23540;DHT22;11947;50.810;4.394;2022-07-15T14:04:37;36.20;49.50
23540;DHT22;11947;50.810;4.394;2022-07-15T14:07:03;35.00;50.20
23540;DHT22;11947;50.810;4.394;2022-07-15T14:09:29;34.10;51.40
23540;DHT22;11947;50.810;4.394;2022-07-15T14:11:55;35.20;52.80
23540;DHT22;11947;50.810;4.394;2022-07-15T14:14:21;37.30;50.80
23540;DHT22;11947;50.810;4.394;2022-07-15T14:16:47;38.90;49.00
23540;DHT22;11947;50.810;4.394;2022-07-15T14:19:14;40.30;47.00
23540;DHT22;11947;50.810;4.394;2022-07-15T14:21:40;40.40;47.40
23540;DHT22;11947;50.810;4.394;2022-07-15T14:24:05;39.50;45.80
23540;DHT22;11947;50.810;4.394;2022-07-15T14:26:31;38.30;47.70
23540;DHT22;11947;50.810;4.394;2022-07-15T14:28:57;37.20;49.10
23540;DHT22;11947;50.810;4.394;2022-07-15T14:31:23;36.40;50.30
23540;DHT22;11947;50.810;4.394;2022-07-15T14:33:48;35.60;52.50
23540;DHT22;11947;50.810;4.394;2022-07-15T14:36:14;34.80;53.80
23540;DHT22;11947;50.810;4.394;2022-07-15T14:38:41;34.50;52.60
23540;DHT22;11947;50.810;4.394;2022-07-15T14:41:07;34.30;53.40
23540;DHT22;11947;50.810;4.394;2022-07-15T14:43:33;33.80;54.10
23540;DHT22;11947;50.810;4.394;2022-07-15T14:46:00;33.30;54.40
23540;DHT22;11947;50.810;4.394;2022-07-15T14:48:26;32.60;55.00
23540;DHT22;11947;50.810;4.394;2022-07-15T14:50:53;32.20;56.90
23540;DHT22;11947;50.810;4.394;2022-07-15T14:53:19;31.70;57.30
23540;DHT22;11947;50.810;4.394;2022-07-15T14:55:45;31.40;58.10
23540;DHT22;11947;50.810;4.394;2022-07-15T14:58:11;31.00;58.10
23540;DHT22;11947;50.810;4.394;2022-07-15T15:00:39;30.60;58.10
23540;DHT22;11947;50.810;4.394;2022-07-15T15:03:05;30.20;58.70
23540;DHT22;11947;50.810;4.394;2022-07-15T15:05:31;29.80;58.40
23540;DHT22;11947;50.810;4.394;2022-07-15T15:07:57;29.30;60.70
23540;DHT22;11947;50.810;4.394;2022-07-15T15:10:22;29.00;61.00
23540;DHT22;11947;50.810;4.394;2022-07-15T15:12:49;28.90;63.50
23540;DHT22;11947;50.810;4.394;2022-07-15T15:15:14;28.70;61.30
23540;DHT22;11947;50.810;4.394;2022-07-15T15:17:40;28.50;62.20
23540;DHT22;11947;50.810;4.394;2022-07-15T15:20:06;28.30;64.00
23540;DHT22;11947;50.810;4.394;2022-07-15T15:22:33;28.00;63.90
23540;DHT22;11947;50.810;4.394;2022-07-15T15:24:59;27.70;65.10
23540;DHT22;11947;50.810;4.394;2022-07-15T15:27:25;27.50;66.70
23540;DHT22;11947;50.810;4.394;2022-07-15T15:29:51;27.40;65.80
23540;DHT22;11947;50.810;4.394;2022-07-15T15:32:16;27.30;66.70
23540;DHT22;11947;50.810;4.394;2022-07-15T15:34:43;27.10;65.10
23540;DHT22;11947;50.810;4.394;2022-07-15T15:37:10;26.80;65.80
23540;DHT22;11947;50.810;4.394;2022-07-15T15:39:36;26.70;67.00
23540;DHT22;11947;50.810;4.394;2022-07-15T15:42:04;26.50;67.30
23540;DHT22;11947;50.810;4.394;2022-07-15T15:44:30;26.40;68.50
23540;DHT22;11947;50.810;4.394;2022-07-15T15:46:55;26.40;67.80
23540;DHT22;11947;50.810;4.394;2022-07-15T15:49:21;26.40;67.50
23540;DHT22;11947;50.810;4.394;2022-07-15T15:51:47;26.40;69.10
23540;DHT22;11947;50.810;4.394;2022-07-15T15:54:13;26.30;68.40
23540;DHT22;11947;50.810;4.394;2022-07-15T15:56:39;26.30;68.80
23540;DHT22;11947;50.810;4.394;2022-07-15T15:59:04;26.30;68.00
23540;DHT22;11947;50.810;4.394;2022-07-15T16:01:31;26.10;68.40
23540;DHT22;11947;50.810;4.394;2022-07-15T16:03:57;25.90;70.60
23540;DHT22;11947;50.810;4.394;2022-07-15T16:06:26;26.00;70.10
23540;DHT22;11947;50.810;4.394;2022-07-15T16:08:52;26.10;69.30
23540;DHT22;11947;50.810;4.394;2022-07-15T16:11:19;26.20;70.80
23540;DHT22;11947;50.810;4.394;2022-07-15T16:13:45;26.10;70.60
23540;DHT22;11947;50.810;4.394;2022-07-15T16:16:11;26.20;68.70
23540;DHT22;11947;50.810;4.394;2022-07-15T16:18:37;26.20;69.70
23540;DHT22;11947;50.810;4.394;2022-07-15T16:21:03;26.00;70.00
23540;DHT22;11947;50.810;4.394;2022-07-15T16:23:28;25.90;70.60
23540;DHT22;11947;50.810;4.394;2022-07-15T16:25:54;25.80;71.60
23540;DHT22;11947;50.810;4.394;2022-07-15T16:28:20;25.80;71.60
23540;DHT22;11947;50.810;4.394;2022-07-15T16:30:47;25.70;72.10
23540;DHT22;11947;50.810;4.394;2022-07-15T16:33:13;25.50;71.40
23540;DHT22;11947;50.810;4.394;2022-07-15T16:35:39;25.50;73.50
23540;DHT22;11947;50.810;4.394;2022-07-15T16:38:06;25.40;72.90
23540;DHT22;11947;50.810;4.394;2022-07-15T16:40:32;25.40;73.30
23540;DHT22;11947;50.810;4.394;2022-07-15T16:42:58;25.30;73.10
23540;DHT22;11947;50.810;4.394;2022-07-15T16:45:24;25.20;75.10
23540;DHT22;11947;50.810;4.394;2022-07-15T16:47:49;25.10;74.70
23540;DHT22;11947;50.810;4.394;2022-07-15T16:50:15;25.10;74.30
23540;DHT22;11947;50.810;4.394;2022-07-15T16:52:41;25.10;73.70
23540;DHT22;11947;50.810;4.394;2022-07-15T16:55:08;25.10;73.90
23540;DHT22;11947;50.810;4.394;2022-07-15T16:57:34;25.10;74.80
23540;DHT22;11947;50.810;4.394;2022-07-15T17:00:00;25.00;75.90
23540;DHT22;11947;50.810;4.394;2022-07-15T17:02:25;25.10;75.70
23540;DHT22;11947;50.810;4.394;2022-07-15T17:04:51;25.20;74.80
23540;DHT22;11947;50.810;4.394;2022-07-15T17:07:17;25.20;75.30
23540;DHT22;11947;50.810;4.394;2022-07-15T17:09:43;25.10;76.20
23540;DHT22;11947;50.810;4.394;2022-07-15T17:12:10;25.00;77.60
23540;DHT22;11947;50.810;4.394;2022-07-15T17:14:36;24.90;78.70
23540;DHT22;11947;50.810;4.394;2022-07-15T17:17:02;24.90;76.70
23540;DHT22;11947;50.810;4.394;2022-07-15T17:19:29;24.80;78.10
23540;DHT22;11947;50.810;4.394;2022-07-15T17:21:55;24.60;78.20
23540;DHT22;11947;50.810;4.394;2022-07-15T17:24:21;24.50;80.00
23540;DHT22;11947;50.810;4.394;2022-07-15T17:26:47;24.50;79.10
23540;DHT22;11947;50.810;4.394;2022-07-15T17:29:14;24.40;79.70
23540;DHT22;11947;50.810;4.394;2022-07-15T17:34:15;24.40;80.60
23540;DHT22;11947;50.810;4.394;2022-07-15T17:36:41;24.10;82.00
23540;DHT22;11947;50.810;4.394;2022-07-15T17:39:08;23.90;82.00
23540;DHT22;11947;50.810;4.394;2022-07-15T17:41:35;23.80;82.80
23540;DHT22;11947;50.810;4.394;2022-07-15T17:44:01;23.90;83.30
23540;DHT22;11947;50.810;4.394;2022-07-15T17:46:27;23.90;82.40
23540;DHT22;11947;50.810;4.394;2022-07-15T17:49:01;23.90;84.70
23540;DHT22;11947;50.810;4.394;2022-07-15T17:51:27;24.20;82.00
23540;DHT22;11947;50.810;4.394;2022-07-15T17:53:52;24.20;82.10
23540;DHT22;11947;50.810;4.394;2022-07-15T17:56:18;24.10;83.30
23540;DHT22;11947;50.810;4.394;2022-07-15T17:58:44;23.90;83.90
23540;DHT22;11947;50.810;4.394;2022-07-15T18:01:09;23.90;82.50
23540;DHT22;11947;50.810;4.394;2022-07-15T18:03:36;23.70;84.10
23540;DHT22;11947;50.810;4.394;2022-07-15T18:06:02;23.60;85.40
23540;DHT22;11947;50.810;4.394;2022-07-15T18:08:27;23.70;86.10
23540;DHT22;11947;50.810;4.394;2022-07-15T18:10:54;23.70;84.70
23540;DHT22;11947;50.810;4.394;2022-07-15T18:13:19;23.70;85.50
23540;DHT22;11947;50.810;4.394;2022-07-15T18:15:45;23.60;86.60
23540;DHT22;11947;50.810;4.394;2022-07-15T18:18:11;23.60;84.70
23540;DHT22;11947;50.810;4.394;2022-07-15T18:20:39;23.60;84.00
23540;DHT22;11947;50.810;4.394;2022-07-15T18:23:05;23.60;84.20
23540;DHT22;11947;50.810;4.394;2022-07-15T18:25:31;23.50;84.30
23540;DHT22;11947;50.810;4.394;2022-07-15T18:27:56;23.40;86.20
23540;DHT22;11947;50.810;4.394;2022-07-15T18:30:22;23.30;85.70
23540;DHT22;11947;50.810;4.394;2022-07-15T18:32:48;23.30;85.20
23540;DHT22;11947;50.810;4.394;2022-07-15T18:35:14;23.20;86.70
23540;DHT22;11947;50.810;4.394;2022-07-15T18:37:41;23.20;86.00
23540;DHT22;11947;50.810;4.394;2022-07-15T18:40:07;23.10;88.20
23540;DHT22;11947;50.810;4.394;2022-07-15T18:42:36;22.80;88.80
23540;DHT22;11947;50.810;4.394;2022-07-15T18:45:02;22.70;90.00
23540;DHT22;11947;50.810;4.394;2022-07-15T18:47:28;22.50;89.50
23540;DHT22;11947;50.810;4.394;2022-07-15T18:49:54;22.50;90.00
23540;DHT22;11947;50.810;4.394;2022-07-15T18:52:20;22.40;90.30
23540;DHT22;11947;50.810;4.394;2022-07-15T18:54:49;22.40;90.20
23540;DHT22;11947;50.810;4.394;2022-07-15T18:57:14;22.30;90.10
23540;DHT22;11947;50.810;4.394;2022-07-15T18:59:40;22.40;89.10
23540;DHT22;11947;50.810;4.394;2022-07-15T19:02:06;22.20;90.10
23540;DHT22;11947;50.810;4.394;2022-07-15T19:04:35;22.20;89.80
23540;DHT22;11947;50.810;4.394;2022-07-15T19:07:01;22.20;89.70
23540;DHT22;11947;50.810;4.394;2022-07-15T19:09:26;22.10;90.50
23540;DHT22;11947;50.810;4.394;2022-07-15T19:11:52;22.00;90.00
23540;DHT22;11947;50.810;4.394;2022-07-15T19:14:19;22.00;90.40
23540;DHT22;11947;50.810;4.394;2022-07-15T19:16:49;21.80;90.80
23540;DHT22;11947;50.810;4.394;2022-07-15T19:19:15;21.80;90.40
23540;DHT22;11947;50.810;4.394;2022-07-15T19:21:40;21.80;90.70
23540;DHT22;11947;50.810;4.394;2022-07-15T19:24:08;21.70;91.00
23540;DHT22;11947;50.810;4.394;2022-07-15T19:26:34;21.60;91.60
23540;DHT22;11947;50.810;4.394;2022-07-15T19:29:00;21.60;91.00
23540;DHT22;11947;50.810;4.394;2022-07-15T19:31:26;21.50;90.70
23540;DHT22;11947;50.810;4.394;2022-07-15T19:34:12;21.40;91.10
23540;DHT22;11947;50.810;4.394;2022-07-15T19:37:03;21.40;91.50
23540;DHT22;11947;50.810;4.394;2022-07-15T19:39:29;21.30;91.80
23540;DHT22;11947;50.810;4.394;2022-07-15T19:41:55;21.10;91.80
23540;DHT22;11947;50.810;4.394;2022-07-15T19:44:25;21.20;91.50
23540;DHT22;11947;50.810;4.394;2022-07-15T19:50:40;21.10;91.40
23540;DHT22;11947;50.810;4.394;2022-07-15T19:53:22;21.10;91.10
23540;DHT22;11947;50.810;4.394;2022-07-15T19:56:37;21.00;92.20
23540;DHT22;11947;50.810;4.394;2022-07-15T19:59:34;20.90;92.80
23540;DHT22;11947;50.810;4.394;2022-07-15T20:02:18;20.80;92.70
23540;DHT22;11947;50.810;4.394;2022-07-15T20:04:44;20.70;92.80
23540;DHT22;11947;50.810;4.394;2022-07-15T20:07:10;20.60;92.60
23540;DHT22;11947;50.810;4.394;2022-07-15T20:09:35;20.50;92.80
23540;DHT22;11947;50.810;4.394;2022-07-15T20:12:05;20.40;92.60
23540;DHT22;11947;50.810;4.394;2022-07-15T20:14:30;20.40;92.40
23540;DHT22;11947;50.810;4.394;2022-07-15T20:16:56;20.40;92.40
23540;DHT22;11947;50.810;4.394;2022-07-15T20:19:23;20.40;92.90
23540;DHT22;11947;50.810;4.394;2022-07-15T20:21:49;20.40;93.60
23540;DHT22;11947;50.810;4.394;2022-07-15T20:24:15;20.20;93.50
23540;DHT22;11947;50.810;4.394;2022-07-15T20:26:40;20.30;93.10
23540;DHT22;11947;50.810;4.394;2022-07-15T20:29:08;20.10;92.90
23540;DHT22;11947;50.810;4.394;2022-07-15T20:31:34;20.20;92.80
23540;DHT22;11947;50.810;4.394;2022-07-15T20:34:00;20.10;92.90
23540;DHT22;11947;50.810;4.394;2022-07-15T20:36:26;20.00;92.60
23540;DHT22;11947;50.810;4.394;2022-07-15T20:38:52;19.90;93.00
23540;DHT22;11947;50.810;4.394;2022-07-15T20:41:18;19.90;92.90
23540;DHT22;11947;50.810;4.394;2022-07-15T20:43:44;19.80;93.00
23540;DHT22;11947;50.810;4.394;2022-07-15T20:46:10;19.80;93.70
23540;DHT22;11947;50.810;4.394;2022-07-15T20:48:36;19.80;93.80
23540;DHT22;11947;50.810;4.394;2022-07-15T20:51:02;19.80;94.20
23540;DHT22;11947;50.810;4.394;2022-07-15T20:53:28;19.70;93.90
23540;DHT22;11947;50.810;4.394;2022-07-15T20:55:54;19.60;93.90
23540;DHT22;11947;50.810;4.394;2022-07-15T20:58:20;19.60;94.30
23540;DHT22;11947;50.810;4.394;2022-07-15T21:00:46;19.50;94.30
23540;DHT22;11947;50.810;4.394;2022-07-15T21:03:12;19.40;94.40
23540;DHT22;11947;50.810;4.394;2022-07-15T21:05:39;19.40;94.40
23540;DHT22;11947;50.810;4.394;2022-07-15T21:08:05;19.40;94.50
23540;DHT22;11947;50.810;4.394;2022-07-15T21:10:31;19.30;94.00
23540;DHT22;11947;50.810;4.394;2022-07-15T21:12:57;19.30;94.60
23540;DHT22;11947;50.810;4.394;2022-07-15T21:15:23;19.20;94.50
23540;DHT22;11947;50.810;4.394;2022-07-15T21:17:49;19.20;95.10
23540;DHT22;11947;50.810;4.394;2022-07-15T21:20:15;19.10;95.30
23540;DHT22;11947;50.810;4.394;2022-07-15T21:22:41;19.10;95.50
23540;DHT22;11947;50.810;4.394;2022-07-15T21:25:07;19.00;96.00
23540;DHT22;11947;50.810;4.394;2022-07-15T21:27:51;18.90;96.30
23540;DHT22;11947;50.810;4.394;2022-07-15T21:30:23;18.80;96.70
23540;DHT22;11947;50.810;4.394;2022-07-15T21:32:49;18.60;97.40
23540;DHT22;11947;50.810;4.394;2022-07-15T21:35:14;18.70;97.80
23540;DHT22;11947;50.810;4.394;2022-07-15T21:37:40;18.70;97.80
23540;DHT22;11947;50.810;4.394;2022-07-15T21:40:06;18.60;98.00
23540;DHT22;11947;50.810;4.394;2022-07-15T21:42:32;18.50;98.40
23540;DHT22;11947;50.810;4.394;2022-07-15T21:44:58;18.40;98.90
23540;DHT22;11947;50.810;4.394;2022-07-15T21:47:24;18.40;99.20
23540;DHT22;11947;50.810;4.394;2022-07-15T21:49:50;18.30;99.30
23540;DHT22;11947;50.810;4.394;2022-07-15T21:52:15;18.40;99.90
23540;DHT22;11947;50.810;4.394;2022-07-15T21:54:41;18.30;99.90
23540;DHT22;11947;50.810;4.394;2022-07-15T21:57:07;18.30;99.90
23540;DHT22;11947;50.810;4.394;2022-07-15T21:59:34;18.30;99.90
23540;DHT22;11947;50.810;4.394;2022-07-15T22:01:59;18.20;99.90
23540;DHT22;11947;50.810;4.394;2022-07-15T22:04:25;18.10;99.90
23540;DHT22;11947;50.810;4.394;2022-07-15T22:06:51;18.00;99.90
23540;DHT22;11947;50.810;4.394;2022-07-15T22:09:16;18.00;99.90
23540;DHT22;11947;50.810;4.394;2022-07-15T22:11:42;17.90;99.90
23540;DHT22;11947;50.810;4.394;2022-07-15T22:14:08;18.00;99.90
23540;DHT22;11947;50.810;4.394;2022-07-15T22:16:33;18.00;99.90
23540;DHT22;11947;50.810;4.394;2022-07-15T22:19:00;18.10;99.90
23540;DHT22;11947;50.810;4.394;2022-07-15T22:21:26;18.10;99.90
23540;DHT22;11947;50.810;4.394;2022-07-15T22:23:52;17.90;99.90
23540;DHT22;11947;50.810;4.394;2022-07-15T22:26:18;17.90;99.90
23540;DHT22;11947;50.810;4.394;2022-07-15T22:28:44;17.80;99.90
23540;DHT22;11947;50.810;4.394;2022-07-15T22:31:11;17.60;99.90
23540;DHT22;11947;50.810;4.394;2022-07-15T22:33:37;17.50;99.90
23540;DHT22;11947;50.810;4.394;2022-07-15T22:36:03;17.50;99.90
23540;DHT22;11947;50.810;4.394;2022-07-15T22:38:29;17.50;99.90
23540;DHT22;11947;50.810;4.394;2022-07-15T22:40:55;17.50;99.90
23540;DHT22;11947;50.810;4.394;2022-07-15T22:43:22;17.50;99.90
23540;DHT22;11947;50.810;4.394;2022-07-15T22:45:48;17.50;99.90
23540;DHT22;11947;50.810;4.394;2022-07-15T22:48:13;17.40;99.90
23540;DHT22;11947;50.810;4.394;2022-07-15T22:50:39;17.50;99.90
23540;DHT22;11947;50.810;4.394;2022-07-15T22:53:05;17.40;99.90
23540;DHT22;11947;50.810;4.394;2022-07-15T22:55:31;17.30;99.90
23540;DHT22;11947;50.810;4.394;2022-07-15T22:57:57;17.30;99.90
23540;DHT22;11947;50.810;4.394;2022-07-15T23:00:22;17.40;99.90
23540;DHT22;11947;50.810;4.394;2022-07-15T23:02:48;17.20;99.90
23540;DHT22;11947;50.810;4.394;2022-07-15T23:05:14;17.30;99.90
23540;DHT22;11947;50.810;4.394;2022-07-15T23:07:40;17.10;99.90
23540;DHT22;11947;50.810;4.394;2022-07-15T23:10:06;17.10;99.90
23540;DHT22;11947;50.810;4.394;2022-07-15T23:12:32;17.10;99.90
23540;DHT22;11947;50.810;4.394;2022-07-15T23:14:58;17.00;99.90
23540;DHT22;11947;50.810;4.394;2022-07-15T23:17:24;17.00;99.90
23540;DHT22;11947;50.810;4.394;2022-07-15T23:19:50;17.00;99.90
23540;DHT22;11947;50.810;4.394;2022-07-15T23:22:15;17.00;99.90
23540;DHT22;11947;50.810;4.394;2022-07-15T23:24:41;16.90;99.90
23540;DHT22;11947;50.810;4.394;2022-07-15T23:27:07;16.90;99.90
23540;DHT22;11947;50.810;4.394;2022-07-15T23:29:33;16.80;99.90
23540;DHT22;11947;50.810;4.394;2022-07-15T23:31:59;16.90;99.90
23540;DHT22;11947;50.810;4.394;2022-07-15T23:34:26;16.80;99.90
23540;DHT22;11947;50.810;4.394;2022-07-15T23:36:51;16.70;99.90
23540;DHT22;11947;50.810;4.394;2022-07-15T23:39:17;16.70;99.90
23540;DHT22;11947;50.810;4.394;2022-07-15T23:41:43;16.70;99.90
23540;DHT22;11947;50.810;4.394;2022-07-15T23:44:09;16.70;99.90
23540;DHT22;11947;50.810;4.394;2022-07-15T23:46:34;16.60;99.90
23540;DHT22;11947;50.810;4.394;2022-07-15T23:49:00;16.80;99.90
23540;DHT22;11947;50.810;4.394;2022-07-15T23:51:26;16.70;99.90
23540;DHT22;11947;50.810;4.394;2022-07-15T23:53:51;16.60;99.90
23540;DHT22;11947;50.810;4.394;2022-07-15T23:56:17;16.80;99.90
23540;DHT22;11947;50.810;4.394;2022-07-15T23:58:43;16.70;99.90
